sensor_id;sensor_type;location;lat;lon;timestamp;P1;durP1;ratioP1;P2;durP2;ratioP2
51491;SDS011;37569;50.548;8.778;2024-01-16T00:03:00;6.6;;;3.2;;
51491;SDS011;37569;50.548;8.778;2024-01-16T00:08:00;7.5;;;3.2;;
51491;SDS011;37569;50.548;8.778;2024-01-16T00:13:00;8.7;;;3.3;;
51491;SDS011;37569;50.548;8.778;2024-01-16T00:18:00;9;;;3.4;;
51491;SDS011;37569;50.548;8.778;2024-01-16T00:23:00;8;;;3.8;;
51491;SDS011;37569;50.548;8.778;2024-01-16T00:28:01;8.5;;;3.7;;
51491;SDS011;37569;50.548;8.778;2024-01-16T00:33:00;8.5;;;3.7;;
51491;SDS011;37569;50.548;8.778;2024-01-16T00:38:00;9.4;;;3.5;;
51491;SDS011;37569;50.548;8.778;2024-01-16T00:43:01;8;;;3.2;;
51491;SDS011;37569;50.548;8.778;2024-01-16T00:48:01;10.2;;;3.8;;
51491;SDS011;37569;50.548;8.778;2024-01-16T00:53:01;9;;;3.6;;
51491;SDS011;37569;50.548;8.778;2024-01-16T00:58:01;8.7;;;3.2;;
51491;SDS011;37569;50.548;8.778;2024-01-16T01:03:01;8.9;;;3.3;;
51491;SDS011;37569;50.548;8.778;2024-01-16T01:08:01;6;;;3.2;;
51491;SDS011;37569;50.548;8.778;2024-01-16T01:13:01;7.9;;;3.4;;
51491;SDS011;37569;50.548;8.778;2024-01-16T01:18:01;6.4;;;3.3;;
51491;SDS011;37569;50.548;8.778;2024-01-16T01:23:01;9.5;;;3.3;;
51491;SDS011;37569;50.548;8.778;2024-01-16T01:28:01;8;;;3.1;;
51491;SDS011;37569;50.548;8.778;2024-01-16T01:33:01;8.4;;;3.2;;
51491;SDS011;37569;50.548;8.778;2024-01-16T01:38:01;7.5;;;3.4;;
51491;SDS011;37569;50.548;8.778;2024-01-16T01:43:16;7.4;;;3.3;;
51491;SDS011;37569;50.548;8.778;2024-01-16T01:48:01;5.9;;;3.5;;
51491;SDS011;37569;50.548;8.778;2024-01-16T01:53:02;9.9;;;3.7;;
51491;SDS011;37569;50.548;8.778;2024-01-16T01:58:02;5.8;;;3.4;;
51491;SDS011;37569;50.548;8.778;2024-01-16T02:03:02;6.9;;;3.3;;
51491;SDS011;37569;50.548;8.778;2024-01-16T02:08:02;8.2;;;3.9;;
51491;SDS011;37569;50.548;8.778;2024-01-16T02:13:02;8.7;;;3.7;;
51491;SDS011;37569;50.548;8.778;2024-01-16T02:18:02;6.5;;;3.7;;
51491;SDS011;37569;50.548;8.778;2024-01-16T02:23:03;5.9;;;3.5;;
51491;SDS011;37569;50.548;8.778;2024-01-16T02:28:02;8.1;;;4;;
51491;SDS011;37569;50.548;8.778;2024-01-16T02:33:02;8.2;;;3.8;;
51491;SDS011;37569;50.548;8.778;2024-01-16T02:38:02;8;;;4;;
51491;SDS011;37569;50.548;8.778;2024-01-16T02:43:02;6.7;;;4;;
51491;SDS011;37569;50.548;8.778;2024-01-16T02:48:03;8.1;;;3.8;;
51491;SDS011;37569;50.548;8.778;2024-01-16T02:53:03;7.7;;;3.8;;
51491;SDS011;37569;50.548;8.778;2024-01-16T02:58:03;7;;;4;;
51491;SDS011;37569;50.548;8.778;2024-01-16T03:03:03;8.1;;;4.5;;
51491;SDS011;37569;50.548;8.778;2024-01-16T03:08:03;9.3;;;4.1;;
51491;SDS011;37569;50.548;8.778;2024-01-16T03:13:03;9.3;;;4.1;;
51491;SDS011;37569;50.548;8.778;2024-01-16T03:18:03;10.3;;;4.3;;
51491;SDS011;37569;50.548;8.778;2024-01-16T03:23:03;8.2;;;4.2;;
51491;SDS011;37569;50.548;8.778;2024-01-16T03:28:03;8.1;;;4.3;;
51491;SDS011;37569;50.548;8.778;2024-01-16T03:33:03;9.6;;;4.4;;
51491;SDS011;37569;50.548;8.778;2024-01-16T03:38:03;9.7;;;4.5;;
51491;SDS011;37569;50.548;8.778;2024-01-16T03:43:04;12.3;;;4.9;;
51491;SDS011;37569;50.548;8.778;2024-01-16T03:48:04;9;;;4.8;;
51491;SDS011;37569;50.548;8.778;2024-01-16T03:53:04;8.8;;;4.9;;
51491;SDS011;37569;50.548;8.778;2024-01-16T03:58:04;9.2;;;5.2;;
51491;SDS011;37569;50.548;8.778;2024-01-16T04:03:04;9.9;;;5;;
51491;SDS011;37569;50.548;8.778;2024-01-16T04:08:04;9;;;4.6;;
51491;SDS011;37569;50.548;8.778;2024-01-16T04:13:04;10.3;;;5.1;;
51491;SDS011;37569;50.548;8.778;2024-01-16T04:18:04;10.5;;;4.9;;
51491;SDS011;37569;50.548;8.778;2024-01-16T04:23:04;10.5;;;5.6;;
51491;SDS011;37569;50.548;8.778;2024-01-16T04:28:04;10.7;;;5;;
51491;SDS011;37569;50.548;8.778;2024-01-16T04:33:04;11;;;5.7;;
51491;SDS011;37569;50.548;8.778;2024-01-16T04:38:04;10.4;;;5.8;;
51491;SDS011;37569;50.548;8.778;2024-01-16T04:43:04;11.2;;;5.7;;
51491;SDS011;37569;50.548;8.778;2024-01-16T04:48:05;9.4;;;6.1;;
51491;SDS011;37569;50.548;8.778;2024-01-16T04:53:05;12.5;;;5.7;;
51491;SDS011;37569;50.548;8.778;2024-01-16T04:58:05;8.6;;;5.7;;
51491;SDS011;37569;50.548;8.778;2024-01-16T05:03:05;13;;;5.5;;
51491;SDS011;37569;50.548;8.778;2024-01-16T05:08:05;11.6;;;5.7;;
51491;SDS011;37569;50.548;8.778;2024-01-16T05:13:05;11.1;;;5.9;;
51491;SDS011;37569;50.548;8.778;2024-01-16T05:18:05;11.8;;;5.9;;
51491;SDS011;37569;50.548;8.778;2024-01-16T05:23:05;11.3;;;6;;
51491;SDS011;37569;50.548;8.778;2024-01-16T05:28:05;13.2;;;6.5;;
51491;SDS011;37569;50.548;8.778;2024-01-16T05:33:05;15.5;;;6.3;;
51491;SDS011;37569;50.548;8.778;2024-01-16T05:38:06;8.9;;;5.9;;
51491;SDS011;37569;50.548;8.778;2024-01-16T05:43:06;11.7;;;5.6;;
51491;SDS011;37569;50.548;8.778;2024-01-16T05:48:06;9.8;;;5.3;;
51491;SDS011;37569;50.548;8.778;2024-01-16T05:53:06;10.5;;;5.5;;
51491;SDS011;37569;50.548;8.778;2024-01-16T05:58:06;11.8;;;5.3;;
51491;SDS011;37569;50.548;8.778;2024-01-16T06:03:06;13.7;;;5.8;;
51491;SDS011;37569;50.548;8.778;2024-01-16T06:08:06;13.1;;;5.6;;
51491;SDS011;37569;50.548;8.778;2024-01-16T06:13:06;9.9;;;5.6;;
51491;SDS011;37569;50.548;8.778;2024-01-16T06:18:06;7.9;;;5.3;;
51491;SDS011;37569;50.548;8.778;2024-01-16T06:23:07;9.4;;;5.5;;
51491;SDS011;37569;50.548;8.778;2024-01-16T06:28:07;13.1;;;5.6;;
51491;SDS011;37569;50.548;8.778;2024-01-16T06:33:07;12.8;;;5.7;;
51491;SDS011;37569;50.548;8.778;2024-01-16T06:38:07;11.8;;;5.9;;
51491;SDS011;37569;50.548;8.778;2024-01-16T06:43:07;10.3;;;5.7;;
51491;SDS011;37569;50.548;8.778;2024-01-16T06:48:07;10.4;;;5.6;;
51491;SDS011;37569;50.548;8.778;2024-01-16T06:53:07;13.3;;;5.7;;
51491;SDS011;37569;50.548;8.778;2024-01-16T06:58:07;10.7;;;5.4;;
51491;SDS011;37569;50.548;8.778;2024-01-16T07:03:07;10.4;;;4.9;;
51491;SDS011;37569;50.548;8.778;2024-01-16T07:08:08;7.9;;;5.1;;
51491;SDS011;37569;50.548;8.778;2024-01-16T07:13:08;11.9;;;5.4;;
51491;SDS011;37569;50.548;8.778;2024-01-16T07:18:08;9.7;;;5.5;;
51491;SDS011;37569;50.548;8.778;2024-01-16T07:23:08;11.2;;;5.3;;
51491;SDS011;37569;50.548;8.778;2024-01-16T07:28:08;9.9;;;6.4;;
51491;SDS011;37569;50.548;8.778;2024-01-16T07:33:08;10.6;;;5.7;;
51491;SDS011;37569;50.548;8.778;2024-01-16T07:38:08;10.1;;;5.7;;
51491;SDS011;37569;50.548;8.778;2024-01-16T07:43:08;11.4;;;5.9;;
51491;SDS011;37569;50.548;8.778;2024-01-16T07:48:08;10.9;;;5.4;;
51491;SDS011;37569;50.548;8.778;2024-01-16T07:53:08;10.7;;;6.2;;
51491;SDS011;37569;50.548;8.778;2024-01-16T07:58:09;10.9;;;6.5;;
51491;SDS011;37569;50.548;8.778;2024-01-16T08:03:09;10.8;;;5.6;;
51491;SDS011;37569;50.548;8.778;2024-01-16T08:08:09;10;;;5.7;;
51491;SDS011;37569;50.548;8.778;2024-01-16T08:13:09;10.7;;;5.5;;
51491;SDS011;37569;50.548;8.778;2024-01-16T08:18:09;7.1;;;5.3;;
51491;SDS011;37569;50.548;8.778;2024-01-16T08:23:09;8.2;;;5.3;;
51491;SDS011;37569;50.548;8.778;2024-01-16T08:28:09;9.3;;;5.5;;
51491;SDS011;37569;50.548;8.778;2024-01-16T08:33:09;7.3;;;5.2;;
51491;SDS011;37569;50.548;8.778;2024-01-16T08:38:09;8.6;;;4.9;;
51491;SDS011;37569;50.548;8.778;2024-01-16T08:43:09;7.4;;;4.9;;
51491;SDS011;37569;50.548;8.778;2024-01-16T08:48:09;8.4;;;5;;
51491;SDS011;37569;50.548;8.778;2024-01-16T08:53:09;9.3;;;4.6;;
51491;SDS011;37569;50.548;8.778;2024-01-16T08:58:09;8.1;;;4.7;;
51491;SDS011;37569;50.548;8.778;2024-01-16T09:03:11;7.8;;;4.6;;
51491;SDS011;37569;50.548;8.778;2024-01-16T09:08:10;9;;;4.4;;
51491;SDS011;37569;50.548;8.778;2024-01-16T09:13:10;9.2;;;4.6;;
51491;SDS011;37569;50.548;8.778;2024-01-16T09:18:10;6.8;;;4.4;;
51491;SDS011;37569;50.548;8.778;2024-01-16T09:23:10;9;;;4.3;;
51491;SDS011;37569;50.548;8.778;2024-01-16T09:28:10;8.4;;;3.7;;
51491;SDS011;37569;50.548;8.778;2024-01-16T09:33:10;6.7;;;4;;
51491;SDS011;37569;50.548;8.778;2024-01-16T09:38:11;6.7;;;4.1;;
51491;SDS011;37569;50.548;8.778;2024-01-16T09:43:11;8.7;;;3.8;;
51491;SDS011;37569;50.548;8.778;2024-01-16T09:48:11;7.2;;;3.5;;
51491;SDS011;37569;50.548;8.778;2024-01-16T09:53:11;6.7;;;3.4;;
51491;SDS011;37569;50.548;8.778;2024-01-16T09:58:11;7.8;;;3.4;;
51491;SDS011;37569;50.548;8.778;2024-01-16T10:03:12;5.9;;;3.8;;
51491;SDS011;37569;50.548;8.778;2024-01-16T10:08:11;8.3;;;4;;
51491;SDS011;37569;50.548;8.778;2024-01-16T10:13:11;7.7;;;4.3;;
51491;SDS011;37569;50.548;8.778;2024-01-16T10:18:21;8.8;;;4;;
51491;SDS011;37569;50.548;8.778;2024-01-16T10:23:12;9.8;;;3.8;;
51491;SDS011;37569;50.548;8.778;2024-01-16T10:28:12;8.3;;;3.7;;
51491;SDS011;37569;50.548;8.778;2024-01-16T10:33:13;7.3;;;3.8;;
51491;SDS011;37569;50.548;8.778;2024-01-16T10:38:15;6.5;;;3.6;;
51491;SDS011;37569;50.548;8.778;2024-01-16T10:43:13;7.1;;;3.6;;
51491;SDS011;37569;50.548;8.778;2024-01-16T10:48:13;9.4;;;3.9;;
51491;SDS011;37569;50.548;8.778;2024-01-16T10:53:13;7.4;;;3.1;;
51491;SDS011;37569;50.548;8.778;2024-01-16T10:58:13;7.5;;;3.2;;
51491;SDS011;37569;50.548;8.778;2024-01-16T11:03:16;8.5;;;3.5;;
51491;SDS011;37569;50.548;8.778;2024-01-16T11:08:13;7;;;3.1;;
51491;SDS011;37569;50.548;8.778;2024-01-16T11:13:13;7.6;;;3.4;;
51491;SDS011;37569;50.548;8.778;2024-01-16T11:18:14;7.2;;;3.3;;
51491;SDS011;37569;50.548;8.778;2024-01-16T11:23:14;5.4;;;3;;
51491;SDS011;37569;50.548;8.778;2024-01-16T11:28:14;9.2;;;3.3;;
51491;SDS011;37569;50.548;8.778;2024-01-16T11:33:41;5.4;;;3;;
51491;SDS011;37569;50.548;8.778;2024-01-16T11:38:15;8.3;;;3;;
51491;SDS011;37569;50.548;8.778;2024-01-16T11:43:46;10.4;;;3.2;;
51491;SDS011;37569;50.548;8.778;2024-01-16T11:48:15;4.6;;;2.7;;
51491;SDS011;37569;50.548;8.778;2024-01-16T11:53:46;7.5;;;2.8;;
51491;SDS011;37569;50.548;8.778;2024-01-16T11:58:24;8.8;;;3.1;;
51491;SDS011;37569;50.548;8.778;2024-01-16T12:03:15;7.4;;;2.8;;
51491;SDS011;37569;50.548;8.778;2024-01-16T12:08:20;6.2;;;2.8;;
51491;SDS011;37569;50.548;8.778;2024-01-16T12:13:16;9.7;;;3.8;;
51491;SDS011;37569;50.548;8.778;2024-01-16T12:18:17;11.9;;;4.8;;
51491;SDS011;37569;50.548;8.778;2024-01-16T12:23:16;7.7;;;4;;
51491;SDS011;37569;50.548;8.778;2024-01-16T12:28:16;8.1;;;3.5;;
51491;SDS011;37569;50.548;8.778;2024-01-16T12:33:16;20;;;6.6;;
51491;SDS011;37569;50.548;8.778;2024-01-16T12:38:16;16.5;;;6.5;;
51491;SDS011;37569;50.548;8.778;2024-01-16T12:43:17;7.5;;;3.6;;
51491;SDS011;37569;50.548;8.778;2024-01-16T12:48:21;5.6;;;3.3;;
51491;SDS011;37569;50.548;8.778;2024-01-16T12:53:17;6.7;;;2.8;;
51491;SDS011;37569;50.548;8.778;2024-01-16T12:58:18;7.1;;;2.9;;
51491;SDS011;37569;50.548;8.778;2024-01-16T13:03:18;4.9;;;2.6;;
51491;SDS011;37569;50.548;8.778;2024-01-16T13:08:18;5.7;;;2.7;;
51491;SDS011;37569;50.548;8.778;2024-01-16T13:13:18;6.9;;;2.8;;
51491;SDS011;37569;50.548;8.778;2024-01-16T13:18:18;9;;;3.3;;
51491;SDS011;37569;50.548;8.778;2024-01-16T13:23:18;6.8;;;2.8;;
51491;SDS011;37569;50.548;8.778;2024-01-16T13:28:19;4.1;;;2.3;;
51491;SDS011;37569;50.548;8.778;2024-01-16T13:33:18;7.1;;;3.1;;
51491;SDS011;37569;50.548;8.778;2024-01-16T13:38:19;6.3;;;2.5;;
51491;SDS011;37569;50.548;8.778;2024-01-16T13:43:19;4.8;;;2;;
51491;SDS011;37569;50.548;8.778;2024-01-16T13:48:19;4.9;;;2.2;;
51491;SDS011;37569;50.548;8.778;2024-01-16T13:53:19;5;;;2.4;;
51491;SDS011;37569;50.548;8.778;2024-01-16T13:58:20;4.6;;;2.4;;
51491;SDS011;37569;50.548;8.778;2024-01-16T14:03:20;5.4;;;2.1;;
51491;SDS011;37569;50.548;8.778;2024-01-16T14:08:20;5.4;;;1.8;;
51491;SDS011;37569;50.548;8.778;2024-01-16T14:13:20;8.5;;;2.3;;
51491;SDS011;37569;50.548;8.778;2024-01-16T14:18:20;7.3;;;2.2;;
51491;SDS011;37569;50.548;8.778;2024-01-16T14:23:20;5;;;2.4;;
51491;SDS011;37569;50.548;8.778;2024-01-16T14:28:21;4.1;;;2.3;;
51491;SDS011;37569;50.548;8.778;2024-01-16T14:33:21;3.8;;;2.4;;
51491;SDS011;37569;50.548;8.778;2024-01-16T14:38:21;5.3;;;2.5;;
51491;SDS011;37569;50.548;8.778;2024-01-16T14:43:21;4.5;;;1.9;;
51491;SDS011;37569;50.548;8.778;2024-01-16T14:48:21;3.7;;;2.1;;
51491;SDS011;37569;50.548;8.778;2024-01-16T14:53:22;5.7;;;2.2;;
51491;SDS011;37569;50.548;8.778;2024-01-16T14:58:22;4.9;;;2.5;;
51491;SDS011;37569;50.548;8.778;2024-01-16T15:03:22;6.8;;;3.2;;
51491;SDS011;37569;50.548;8.778;2024-01-16T15:08:22;6.5;;;2.4;;
51491;SDS011;37569;50.548;8.778;2024-01-16T15:13:22;7.6;;;2.9;;
51491;SDS011;37569;50.548;8.778;2024-01-16T15:18:22;8.1;;;3.6;;
51491;SDS011;37569;50.548;8.778;2024-01-16T15:23:23;5.6;;;3.4;;
51491;SDS011;37569;50.548;8.778;2024-01-16T15:28:23;5.5;;;3.1;;
51491;SDS011;37569;50.548;8.778;2024-01-16T15:33:23;5.5;;;2.5;;
51491;SDS011;37569;50.548;8.778;2024-01-16T15:38:23;5.3;;;2.2;;
51491;SDS011;37569;50.548;8.778;2024-01-16T15:43:23;5.1;;;2.8;;
51491;SDS011;37569;50.548;8.778;2024-01-16T15:48:23;3.9;;;2.3;;
51491;SDS011;37569;50.548;8.778;2024-01-16T15:53:23;4.2;;;2.5;;
51491;SDS011;37569;50.548;8.778;2024-01-16T15:58:24;6.2;;;2.5;;
51491;SDS011;37569;50.548;8.778;2024-01-16T16:03:24;5.2;;;2.7;;
51491;SDS011;37569;50.548;8.778;2024-01-16T16:08:24;6.2;;;2.5;;
51491;SDS011;37569;50.548;8.778;2024-01-16T16:13:24;4.7;;;2.7;;
51491;SDS011;37569;50.548;8.778;2024-01-16T16:18:24;6.8;;;3.2;;
51491;SDS011;37569;50.548;8.778;2024-01-16T16:23:24;7.7;;;4.3;;
51491;SDS011;37569;50.548;8.778;2024-01-16T16:28:24;7.4;;;4.3;;
51491;SDS011;37569;50.548;8.778;2024-01-16T16:33:25;6.1;;;3.7;;
51491;SDS011;37569;50.548;8.778;2024-01-16T16:38:25;7.8;;;3.3;;
51491;SDS011;37569;50.548;8.778;2024-01-16T16:43:25;7.1;;;3.2;;
51491;SDS011;37569;50.548;8.778;2024-01-16T16:48:25;5.9;;;3;;
51491;SDS011;37569;50.548;8.778;2024-01-16T16:53:25;5.4;;;2.6;;
51491;SDS011;37569;50.548;8.778;2024-01-16T16:58:25;4.2;;;2.8;;
51491;SDS011;37569;50.548;8.778;2024-01-16T17:03:25;6.7;;;2.6;;
51491;SDS011;37569;50.548;8.778;2024-01-16T17:08:25;5.3;;;2.8;;
51491;SDS011;37569;50.548;8.778;2024-01-16T17:13:26;6.5;;;3.7;;
51491;SDS011;37569;50.548;8.778;2024-01-16T17:18:27;9.3;;;4.4;;
51491;SDS011;37569;50.548;8.778;2024-01-16T17:23:26;7.4;;;4.3;;
51491;SDS011;37569;50.548;8.778;2024-01-16T17:28:26;10.3;;;5.1;;
51491;SDS011;37569;50.548;8.778;2024-01-16T17:33:26;12.3;;;5.4;;
51491;SDS011;37569;50.548;8.778;2024-01-16T17:38:26;9.9;;;5.7;;
51491;SDS011;37569;50.548;8.778;2024-01-16T17:43:26;10.1;;;6;;
51491;SDS011;37569;50.548;8.778;2024-01-16T17:48:26;10.6;;;6.6;;
51491;SDS011;37569;50.548;8.778;2024-01-16T17:53:26;12.3;;;7.2;;
51491;SDS011;37569;50.548;8.778;2024-01-16T17:58:26;12.4;;;6.9;;
51491;SDS011;37569;50.548;8.778;2024-01-16T18:03:27;10.6;;;6.6;;
51491;SDS011;37569;50.548;8.778;2024-01-16T18:08:27;13.8;;;7.6;;
51491;SDS011;37569;50.548;8.778;2024-01-16T18:13:27;13;;;7.4;;
51491;SDS011;37569;50.548;8.778;2024-01-16T18:18:27;13.1;;;7.2;;
51491;SDS011;37569;50.548;8.778;2024-01-16T18:23:27;12.7;;;7.9;;
51491;SDS011;37569;50.548;8.778;2024-01-16T18:28:27;21.8;;;10.9;;
51491;SDS011;37569;50.548;8.778;2024-01-16T18:33:27;15.9;;;10.1;;
51491;SDS011;37569;50.548;8.778;2024-01-16T18:38:27;14;;;8.7;;
51491;SDS011;37569;50.548;8.778;2024-01-16T18:43:27;15.1;;;8.9;;
51491;SDS011;37569;50.548;8.778;2024-01-16T18:48:27;20.9;;;11.2;;
51491;SDS011;37569;50.548;8.778;2024-01-16T18:53:27;15.8;;;9.6;;
51491;SDS011;37569;50.548;8.778;2024-01-16T18:58:27;15.8;;;11.1;;
51491;SDS011;37569;50.548;8.778;2024-01-16T19:03:27;17.5;;;9.7;;
51491;SDS011;37569;50.548;8.778;2024-01-16T19:08:27;17.8;;;10.1;;
51491;SDS011;37569;50.548;8.778;2024-01-16T19:13:27;15.2;;;9.6;;
51491;SDS011;37569;50.548;8.778;2024-01-16T19:18:27;14.9;;;8.8;;
51491;SDS011;37569;50.548;8.778;2024-01-16T19:23:27;16.7;;;9.7;;
51491;SDS011;37569;50.548;8.778;2024-01-16T19:28:28;17.1;;;9.8;;
51491;SDS011;37569;50.548;8.778;2024-01-16T19:33:28;16.8;;;10.9;;
51491;SDS011;37569;50.548;8.778;2024-01-16T19:38:28;15.6;;;10.2;;
51491;SDS011;37569;50.548;8.778;2024-01-16T19:43:28;17.8;;;9.7;;
51491;SDS011;37569;50.548;8.778;2024-01-16T19:48:28;13.6;;;7.6;;
51491;SDS011;37569;50.548;8.778;2024-01-16T19:53:28;16.7;;;9;;
51491;SDS011;37569;50.548;8.778;2024-01-16T19:58:28;13.8;;;9;;
51491;SDS011;37569;50.548;8.778;2024-01-16T20:03:28;13.9;;;7.1;;
51491;SDS011;37569;50.548;8.778;2024-01-16T20:08:28;14.1;;;7.9;;
51491;SDS011;37569;50.548;8.778;2024-01-16T20:13:28;15.1;;;8;;
51491;SDS011;37569;50.548;8.778;2024-01-16T20:18:28;15.2;;;8.7;;
51491;SDS011;37569;50.548;8.778;2024-01-16T20:23:28;17.1;;;8.9;;
51491;SDS011;37569;50.548;8.778;2024-01-16T20:28:28;14.6;;;8;;
51491;SDS011;37569;50.548;8.778;2024-01-16T20:33:28;17.1;;;8.1;;
51491;SDS011;37569;50.548;8.778;2024-01-16T20:38:28;19;;;10.4;;
51491;SDS011;37569;50.548;8.778;2024-01-16T20:43:28;21.5;;;11.2;;
51491;SDS011;37569;50.548;8.778;2024-01-16T20:48:28;39;;;18;;
51491;SDS011;37569;50.548;8.778;2024-01-16T20:53:28;17.2;;;10.6;;
51491;SDS011;37569;50.548;8.778;2024-01-16T20:58:28;17.3;;;9.4;;
51491;SDS011;37569;50.548;8.778;2024-01-16T21:03:28;39;;;16.2;;
51491;SDS011;37569;50.548;8.778;2024-01-16T21:08:28;20.1;;;9.6;;
51491;SDS011;37569;50.548;8.778;2024-01-16T21:13:28;36.3;;;13.4;;
51491;SDS011;37569;50.548;8.778;2024-01-16T21:18:28;27.4;;;12.3;;
51491;SDS011;37569;50.548;8.778;2024-01-16T21:23:28;21.5;;;10.2;;
51491;SDS011;37569;50.548;8.778;2024-01-16T21:28:28;18.2;;;10.4;;
51491;SDS011;37569;50.548;8.778;2024-01-16T21:33:28;18.7;;;9.9;;
51491;SDS011;37569;50.548;8.778;2024-01-16T21:38:28;21.8;;;9.9;;
51491;SDS011;37569;50.548;8.778;2024-01-16T21:43:28;27.5;;;11.9;;
51491;SDS011;37569;50.548;8.778;2024-01-16T21:48:28;33;;;13.1;;
51491;SDS011;37569;50.548;8.778;2024-01-16T21:53:28;23.8;;;11.9;;
51491;SDS011;37569;50.548;8.778;2024-01-16T21:58:27;28.7;;;13.1;;
51491;SDS011;37569;50.548;8.778;2024-01-16T22:03:27;30.9;;;13.4;;
51491;SDS011;37569;50.548;8.778;2024-01-16T22:08:27;46.9;;;18.2;;
51491;SDS011;37569;50.548;8.778;2024-01-16T22:13:27;47.9;;;18.7;;
51491;SDS011;37569;50.548;8.778;2024-01-16T22:18:27;47.7;;;19.1;;
51491;SDS011;37569;50.548;8.778;2024-01-16T22:23:27;31.1;;;13.5;;
51491;SDS011;37569;50.548;8.778;2024-01-16T22:28:27;21.5;;;11.4;;
51491;SDS011;37569;50.548;8.778;2024-01-16T22:33:27;23.8;;;12.2;;
51491;SDS011;37569;50.548;8.778;2024-01-16T22:38:27;36.1;;;16.8;;
51491;SDS011;37569;50.548;8.778;2024-01-16T22:43:27;46.4;;;21.3;;
51491;SDS011;37569;50.548;8.778;2024-01-16T22:48:27;34.7;;;17;;
51491;SDS011;37569;50.548;8.778;2024-01-16T22:53:27;36.8;;;16.9;;
51491;SDS011;37569;50.548;8.778;2024-01-16T22:58:27;31.2;;;15.4;;
51491;SDS011;37569;50.548;8.778;2024-01-16T23:03:27;31.4;;;16.2;;
51491;SDS011;37569;50.548;8.778;2024-01-16T23:08:27;22.1;;;12.9;;
51491;SDS011;37569;50.548;8.778;2024-01-16T23:13:27;104.2;;;42.4;;
51491;SDS011;37569;50.548;8.778;2024-01-16T23:18:26;38.6;;;19;;
51491;SDS011;37569;50.548;8.778;2024-01-16T23:23:26;24.1;;;14.3;;
51491;SDS011;37569;50.548;8.778;2024-01-16T23:28:26;25.2;;;13.5;;
51491;SDS011;37569;50.548;8.778;2024-01-16T23:33:27;24.1;;;12.8;;
51491;SDS011;37569;50.548;8.778;2024-01-16T23:38:26;19.2;;;11.4;;
51491;SDS011;37569;50.548;8.778;2024-01-16T23:43:26;22.9;;;13;;
51491;SDS011;37569;50.548;8.778;2024-01-16T23:48:26;22.8;;;12.2;;
51491;SDS011;37569;50.548;8.778;2024-01-16T23:53:26;18.4;;;11.1;;
51491;SDS011;37569;50.548;8.778;2024-01-16T23:58:26;20.9;;;11.9;;
